Time;durP1;ratioP1;P1;durP2;ratioP2;P2;SDS_P1;SDS_P2;PMS_P1;PMS_P2;Temp;Humidity;BMP_temperature;BMP_pressure;BME280_temperature;BME280_humidity;BME280_pressure;Samples;Min_cycle;Max_cycle;Signal;HPM_P1;HPM_P2
2021/08/12 00:00:49;;;;;;;170.07;14.60;;;;;;;;;;5041655;28;20041;-71
2021/08/12 00:03:15;;;;;;;40.38;10.45;;;;;;;;;;5044582;28;20041;-71
2021/08/12 00:05:42;;;;;;;13.88;8.60;;;;;;;;;;5044508;28;20049;-71
2021/08/12 00:08:09;;;;;;;20.75;10.90;;;;;;;;;;5041588;28;20055;-71
2021/08/12 00:10:35;;;;;;;21.42;10.23;;;;;;;;;;5040326;28;20067;-71
2021/08/12 00:13:01;;;;;;;12.40;10.38;;;;;;;;;;5044530;28;20073;-70
2021/08/12 00:15:27;;;;;;;14.55;10.90;;;;;;;;;;5033252;28;20055;-71
2021/08/12 00:17:54;;;;;;;14.88;10.57;;;;;;;;;;5042791;28;20049;-70
2021/08/12 00:20:20;;;;;;;17.52;14.52;;;;;;;;;;5041807;28;20464;-71
2021/08/12 00:22:46;;;;;;;15.25;11.88;;;;;;;;;;5039272;28;20044;-71
2021/08/12 00:25:12;;;;;;;16.67;13.43;;;;;;;;;;5040604;28;20073;-70
2021/08/12 00:27:39;;;;;;;13.18;10.27;;;;;;;;;;5041879;28;20037;-71
2021/08/12 00:30:05;;;;;;;13.32;11.10;;;;;;;;;;5037897;28;20046;-71
2021/08/12 00:32:32;;;;;;;21.98;14.98;;;;;;;;;;5038159;28;20410;-71
2021/08/12 00:35:01;;;;;;;36.78;21.98;;;;;;;;;;5041216;28;20049;-71
2021/08/12 00:37:27;;;;;;;36.35;22.95;;;;;;;;;;5040660;28;20101;-71
2021/08/12 00:39:53;;;;;;;28.35;19.23;;;;;;;;;;5035750;28;20095;-70
2021/08/12 00:42:22;;;;;;;28.65;20.80;;;;;;;;;;5045102;28;20485;-71
2021/08/12 00:44:49;;;;;;;34.95;22.17;;;;;;;;;;5041405;28;20065;-71
2021/08/12 00:47:15;;;;;;;32.35;21.25;;;;;;;;;;5041586;28;20041;-70
2021/08/12 00:49:41;;;;;;;33.72;23.15;;;;;;;;;;5047917;28;20043;-70
2021/08/12 00:52:10;;;;;;;38.90;25.88;;;;;;;;;;5044090;28;20053;-70
2021/08/12 00:54:39;;;;;;;42.20;26.17;;;;;;;;;;5042037;28;20476;-71
2021/08/12 00:57:05;;;;;;;36.47;24.95;;;;;;;;;;5039136;28;20052;-70
2021/08/12 00:59:34;;;;;;;35.55;24.45;;;;;;;;;;5043731;28;20041;-71
2021/08/12 01:02:01;;;;;;;44.38;29.42;;;;;;;;;;5040242;28;20224;-71
2021/08/12 01:04:28;;;;;;;51.15;35.22;;;;;;;;;;5043249;28;20029;-71
2021/08/12 01:06:59;;;;;;;54.80;34.65;;;;;;;;;;5042745;28;20047;-71
2021/08/12 01:09:33;;;;;;;43.58;29.58;;;;;;;;;;5034147;28;20068;-71
2021/08/12 01:12:04;;;;;;;109.60;27.87;;;;;;;;;;5036312;28;20081;-71
2021/08/12 01:14:38;;;;;;;102.00;26.00;;;;;;;;;;5039227;28;20037;-71
2021/08/12 01:17:04;;;;;;;;;;;;;;;;;;5041110;28;20053;-70
2021/08/12 01:19:45;;;;;;;195.48;23.05;;;;;;;;;;5033143;28;19936;-70
2021/08/12 01:22:12;;;;;;;67.07;18.33;;;;;;;;;;5040662;28;20056;-71
2021/08/12 01:24:40;;;;;;;22.20;14.85;;;;;;;;;;5042794;28;20045;-71
2021/08/12 01:27:08;;;;;;;106.35;18.98;;;;;;;;;;5039819;28;20048;-70
2021/08/12 01:29:41;;;;;;;118.22;20.67;;;;;;;;;;5035501;28;20094;-71
2021/08/12 01:32:10;;;;;;;95.97;22.98;;;;;;;;;;5042618;28;20036;-70
2021/08/12 01:34:45;;;;;;;38.72;17.15;;;;;;;;;;5036346;28;20517;-71
2021/08/12 01:37:13;;;;;;;38.78;18.75;;;;;;;;;;5037352;28;20050;-71
2021/08/12 01:39:41;;;;;;;20.33;16.20;;;;;;;;;;5046163;28;20037;-71
2021/08/12 01:42:08;;;;;;;24.75;18.15;;;;;;;;;;5034174;28;20064;-71
2021/08/12 01:44:34;;;;;;;18.55;15.40;;;;;;;;;;5037215;28;20092;-71
2021/08/12 01:47:01;;;;;;;21.35;14.30;;;;;;;;;;5037743;28;20033;-70
2021/08/12 01:49:28;;;;;;;19.33;12.88;;;;;;;;;;5035632;28;20072;-71
2021/08/12 01:51:54;;;;;;;24.40;16.92;;;;;;;;;;5039440;28;20048;-71
2021/08/12 01:54:21;;;;;;;23.40;15.85;;;;;;;;;;5039243;28;20404;-70
2021/08/12 01:56:47;;;;;;;18.35;14.05;;;;;;;;;;5042845;28;20518;-70
2021/08/12 01:59:15;;;;;;;25.75;18.00;;;;;;;;;;5042058;28;20095;-71
2021/08/12 02:01:46;;;;;;;25.17;16.73;;;;;;;;;;5037564;28;20061;-71
2021/08/12 02:04:13;;;;;;;23.88;17.48;;;;;;;;;;5044368;28;20120;-71
2021/08/12 02:06:40;;;;;;;39.90;18.00;;;;;;;;;;5038917;28;20040;-70
2021/08/12 02:09:06;;;;;;;103.97;18.65;;;;;;;;;;5039720;28;20036;-69
2021/08/12 02:11:33;;;;;;;127.55;21.98;;;;;;;;;;5045975;28;20041;-70
2021/08/12 02:14:00;;;;;;;303.80;25.65;;;;;;;;;;5041942;28;20107;-70
2021/08/12 02:16:26;;;;;;;112.47;19.60;;;;;;;;;;5039025;28;20072;-70
2021/08/12 02:18:52;;;;;;;274.55;23.08;;;;;;;;;;5039501;28;20116;-70
2021/08/12 02:21:22;;;;;;;139.13;21.75;;;;;;;;;;5034635;28;20037;-71
2021/08/12 02:24:07;;;;;;;215.25;24.73;;;;;;;;;;5045217;28;20057;-70
2021/08/12 02:26:36;;;;;;;210.00;21.80;;;;;;;;;;5046801;28;20398;-70
2021/08/12 02:29:03;;;;;;;312.90;21.42;;;;;;;;;;5042910;28;20117;-70
2021/08/12 02:31:31;;;;;;;152.82;17.90;;;;;;;;;;5043722;28;20048;-70
2021/08/12 02:33:58;;;;;;;287.27;21.23;;;;;;;;;;5041265;28;20140;-70
2021/08/12 02:36:25;;;;;;;100.00;16.42;;;;;;;;;;5038498;28;20049;-70
2021/08/12 02:38:52;;;;;;;202.70;19.35;;;;;;;;;;5038302;28;20132;-70
2021/08/12 02:41:20;;;;;;;174.50;16.95;;;;;;;;;;5040290;28;20047;-70
2021/08/12 02:43:47;;;;;;;131.23;15.25;;;;;;;;;;5035347;28;20446;-70
2021/08/12 02:46:14;;;;;;;161.60;18.00;;;;;;;;;;5036476;28;20053;-70
2021/08/12 02:48:41;;;;;;;172.75;17.70;;;;;;;;;;5041943;28;20057;-70
2021/08/12 02:51:07;;;;;;;226.98;20.92;;;;;;;;;;5042003;28;20052;-70
2021/08/12 02:53:34;;;;;;;119.70;21.10;;;;;;;;;;5038984;28;20406;-70
2021/08/12 02:56:02;;;;;;;134.82;20.55;;;;;;;;;;5039115;28;20572;-70
2021/08/12 02:58:32;;;;;;;178.07;19.55;;;;;;;;;;5042388;28;20040;-70
2021/08/12 03:00:59;;;;;;;127.60;22.05;;;;;;;;;;5038312;28;20056;-70
2021/08/12 03:03:26;;;;;;;106.88;21.50;;;;;;;;;;5033602;28;20561;-70
2021/08/12 03:05:53;;;;;;;55.50;18.73;;;;;;;;;;5034639;28;20116;-71
2021/08/12 03:08:19;;;;;;;59.22;20.38;;;;;;;;;;5036423;28;20367;-70
2021/08/12 03:10:46;;;;;;;38.15;17.48;;;;;;;;;;5037706;28;20656;-70
2021/08/12 03:13:14;;;;;;;66.00;19.85;;;;;;;;;;5038721;28;20124;-70
2021/08/12 03:15:40;;;;;;;25.38;18.88;;;;;;;;;;5042635;28;20048;-70
2021/08/12 03:18:07;;;;;;;42.55;21.77;;;;;;;;;;5037333;28;20051;-70
2021/08/12 03:20:33;;;;;;;67.07;23.33;;;;;;;;;;5042251;28;20151;-70
2021/08/12 03:22:59;;;;;;;43.63;19.98;;;;;;;;;;5040176;28;20086;-70
2021/08/12 03:25:26;;;;;;;100.65;20.77;;;;;;;;;;5045082;28;20106;-70
2021/08/12 03:27:52;;;;;;;33.80;21.33;;;;;;;;;;5033299;28;20065;-71
2021/08/12 03:30:18;;;;;;;68.70;28.70;;;;;;;;;;5041802;28;20037;-71
2021/08/12 03:32:45;;;;;;;267.30;36.92;;;;;;;;;;5041118;28;20497;-71
2021/08/12 03:35:11;;;;;;;186.10;30.55;;;;;;;;;;5038722;28;20107;-70
2021/08/12 03:37:38;;;;;;;191.07;27.00;;;;;;;;;;5041847;28;20451;-71
2021/08/12 03:40:04;;;;;;;253.50;30.00;;;;;;;;;;5035351;28;20436;-70
2021/08/12 03:42:31;;;;;;;247.88;27.80;;;;;;;;;;5037675;28;20107;-71
2021/08/12 03:44:57;;;;;;;220.60;25.05;;;;;;;;;;5043294;28;20071;-70
2021/08/12 03:47:24;;;;;;;199.88;22.02;;;;;;;;;;5044886;28;20041;-70
2021/08/12 03:49:50;;;;;;;204.40;22.85;;;;;;;;;;5043007;28;20118;-70
2021/08/12 03:52:16;;;;;;;45.40;19.10;;;;;;;;;;5044229;28;20070;-71
2021/08/12 03:54:42;;;;;;;103.38;23.05;;;;;;;;;;5044166;28;20037;-71
2021/08/12 03:57:09;;;;;;;141.52;24.70;;;;;;;;;;5045717;28;20381;-71
2021/08/12 03:59:35;;;;;;;195.13;23.63;;;;;;;;;;5044114;28;20476;-71
2021/08/12 04:02:01;;;;;;;145.18;22.90;;;;;;;;;;5039535;28;20140;-71
2021/08/12 04:04:28;;;;;;;294.25;27.85;;;;;;;;;;5041011;28;20050;-70
2021/08/12 04:06:54;;;;;;;223.45;27.05;;;;;;;;;;5044990;28;20044;-70
2021/08/12 04:09:20;;;;;;;31.02;25.45;;;;;;;;;;5043756;28;20547;-71
2021/08/12 04:11:46;;;;;;;35.97;26.67;;;;;;;;;;5041041;28;20113;-71
2021/08/12 04:14:13;;;;;;;35.95;27.23;;;;;;;;;;5040921;28;20033;-70
2021/08/12 04:16:40;;;;;;;36.08;27.00;;;;;;;;;;5037251;28;20076;-70
2021/08/12 04:19:06;;;;;;;34.15;26.35;;;;;;;;;;5036217;28;20123;-70
2021/08/12 04:21:32;;;;;;;33.08;24.48;;;;;;;;;;5038024;28;20045;-70
2021/08/12 04:23:59;;;;;;;35.47;25.52;;;;;;;;;;5038460;28;20048;-70
2021/08/12 04:26:27;;;;;;;33.63;25.38;;;;;;;;;;5041462;28;20048;-70
2021/08/12 04:28:55;;;;;;;37.60;27.27;;;;;;;;;;5040550;28;20048;-71
2021/08/12 04:31:22;;;;;;;34.70;27.13;;;;;;;;;;5038386;28;20400;-71
2021/08/12 04:33:48;;;;;;;42.67;29.38;;;;;;;;;;5042047;28;20098;-71
2021/08/12 04:36:14;;;;;;;41.80;30.10;;;;;;;;;;5036044;28;20050;-70
2021/08/12 04:38:41;;;;;;;33.65;24.13;;;;;;;;;;5036277;28;20119;-70
2021/08/12 04:41:07;;;;;;;34.05;25.23;;;;;;;;;;5040849;28;20071;-70
2021/08/12 04:43:34;;;;;;;36.65;26.23;;;;;;;;;;5038159;28;20516;-70
2021/08/12 04:46:02;;;;;;;30.77;24.70;;;;;;;;;;5040082;28;20056;-71
2021/08/12 04:48:29;;;;;;;31.30;23.45;;;;;;;;;;5044074;28;20045;-70
2021/08/12 04:50:55;;;;;;;29.23;22.88;;;;;;;;;;5036617;28;20063;-70
2021/08/12 04:53:21;;;;;;;30.80;23.63;;;;;;;;;;5041798;28;20412;-71
2021/08/12 04:55:47;;;;;;;29.58;23.25;;;;;;;;;;5037713;28;20124;-70
2021/08/12 04:58:14;;;;;;;36.22;24.02;;;;;;;;;;5037053;28;20032;-70
2021/08/12 05:00:40;;;;;;;31.08;23.50;;;;;;;;;;5034515;28;20069;-70
2021/08/12 05:03:06;;;;;;;39.67;26.90;;;;;;;;;;5041762;28;20029;-71
2021/08/12 05:05:33;;;;;;;38.00;26.55;;;;;;;;;;5036927;28;20049;-71
2021/08/12 05:07:59;;;;;;;30.42;19.83;;;;;;;;;;5041205;28;20105;-70
2021/08/12 05:10:27;;;;;;;24.63;18.33;;;;;;;;;;5037312;28;20375;-70
2021/08/12 05:12:55;;;;;;;26.60;21.10;;;;;;;;;;5040247;28;20545;-71
2021/08/12 05:15:22;;;;;;;29.73;23.83;;;;;;;;;;5036537;28;20102;-70
2021/08/12 05:17:48;;;;;;;31.17;24.02;;;;;;;;;;5039311;28;20147;-70
2021/08/12 05:20:14;;;;;;;36.97;25.42;;;;;;;;;;5041995;28;20500;-70
2021/08/12 05:22:41;;;;;;;37.03;25.77;;;;;;;;;;5039608;28;20053;-70
2021/08/12 05:25:07;;;;;;;34.75;25.27;;;;;;;;;;5038607;28;20042;-70
2021/08/12 05:27:35;;;;;;;44.60;28.67;;;;;;;;;;5045630;28;20048;-70
2021/08/12 05:30:03;;;;;;;49.65;29.13;;;;;;;;;;5044488;28;20064;-70
2021/08/12 05:32:33;;;;;;;38.22;26.65;;;;;;;;;;5039120;28;20041;-71
2021/08/12 05:35:00;;;;;;;38.42;26.83;;;;;;;;;;5039328;28;20456;-70
2021/08/12 05:37:26;;;;;;;44.05;28.65;;;;;;;;;;5037940;28;20041;-70
2021/08/12 05:39:52;;;;;;;52.58;32.70;;;;;;;;;;5037661;28;20060;-70
2021/08/12 05:42:19;;;;;;;64.10;38.00;;;;;;;;;;5034938;28;20047;-70
2021/08/12 05:44:45;;;;;;;58.22;37.58;;;;;;;;;;5033970;28;20111;-72
2021/08/12 05:47:11;;;;;;;62.50;37.38;;;;;;;;;;5035325;28;20041;-70
2021/08/12 05:49:41;;;;;;;61.28;37.13;;;;;;;;;;5043993;28;20118;-70
2021/08/12 05:52:08;;;;;;;56.63;35.70;;;;;;;;;;5045004;28;20114;-70
2021/08/12 05:54:36;;;;;;;58.97;37.47;;;;;;;;;;5033971;28;20199;-70
2021/08/12 05:57:02;;;;;;;64.75;40.28;;;;;;;;;;5057584;28;20119;-70
2021/08/12 05:59:28;;;;;;;65.88;39.78;;;;;;;;;;5035200;28;20053;-70
2021/08/12 06:01:55;;;;;;;66.22;38.28;;;;;;;;;;5046841;28;20052;-70
2021/08/12 06:04:21;;;;;;;59.97;38.65;;;;;;;;;;5044357;28;20120;-70
2021/08/12 06:06:47;;;;;;;57.45;38.90;;;;;;;;;;5037481;28;20045;-70
2021/08/12 06:09:13;;;;;;;64.70;39.65;;;;;;;;;;5033522;28;20141;-70
2021/08/12 06:11:40;;;;;;;57.38;37.90;;;;;;;;;;5046431;28;20505;-70
2021/08/12 06:14:07;;;;;;;51.40;36.67;;;;;;;;;;5044895;28;20045;-70
2021/08/12 06:16:34;;;;;;;55.50;37.30;;;;;;;;;;5037447;28;20052;-70
2021/08/12 06:19:01;;;;;;;54.47;36.65;;;;;;;;;;5039671;28;20064;-70
2021/08/12 06:21:27;;;;;;;48.83;34.17;;;;;;;;;;5039139;28;20055;-71
2021/08/12 06:23:54;;;;;;;51.85;35.38;;;;;;;;;;5039930;28;20038;-70
2021/08/12 06:26:20;;;;;;;50.90;34.83;;;;;;;;;;5039838;28;20110;-71
2021/08/12 06:28:46;;;;;;;47.33;34.22;;;;;;;;;;5040059;28;20040;-70
2021/08/12 06:31:13;;;;;;;51.83;34.80;;;;;;;;;;5054244;28;20124;-70
2021/08/12 06:33:39;;;;;;;53.22;36.25;;;;;;;;;;5041332;28;20045;-70
2021/08/12 06:36:06;;;;;;;54.65;38.92;;;;;;;;;;5038592;28;20063;-70
2021/08/12 06:38:32;;;;;;;60.60;39.83;;;;;;;;;;5036863;28;20064;-71
2021/08/12 06:40:58;;;;;;;49.47;36.25;;;;;;;;;;5052161;28;20128;-70
2021/08/12 06:43:25;;;;;;;48.45;35.47;;;;;;;;;;5035584;28;20123;-71
2021/08/12 06:45:51;;;;;;;50.88;37.70;;;;;;;;;;5040392;28;20047;-81
2021/08/12 06:48:17;;;;;;;56.00;38.80;;;;;;;;;;5043978;28;20092;-69
2021/08/12 06:50:48;;;;;;;54.40;35.25;;;;;;;;;;5037708;28;20093;-69
2021/08/12 06:53:14;;;;;;;44.70;33.28;;;;;;;;;;5038023;28;20042;-69
2021/08/12 06:55:41;;;;;;;40.90;32.50;;;;;;;;;;5038312;28;20102;-69
2021/08/12 06:58:07;;;;;;;52.20;35.70;;;;;;;;;;5034031;28;20034;-68
2021/08/12 07:00:33;;;;;;;48.55;34.20;;;;;;;;;;5038160;28;20042;-69
2021/08/12 07:02:59;;;;;;;54.20;35.90;;;;;;;;;;5037100;28;20099;-69
2021/08/12 07:05:26;;;;;;;50.50;34.47;;;;;;;;;;5040850;28;20037;-69
2021/08/12 07:07:52;;;;;;;46.60;34.00;;;;;;;;;;5048291;28;20044;-69
2021/08/12 07:10:19;;;;;;;46.45;34.90;;;;;;;;;;5037137;28;20057;-69
2021/08/12 07:12:45;;;;;;;41.88;34.28;;;;;;;;;;5045816;28;20111;-69
2021/08/12 07:15:11;;;;;;;47.63;32.50;;;;;;;;;;5043919;28;20547;-69
2021/08/12 07:17:38;;;;;;;40.17;30.63;;;;;;;;;;5038833;28;20064;-69
2021/08/12 07:20:05;;;;;;;43.00;31.38;;;;;;;;;;5051879;28;20045;-69
2021/08/12 07:22:31;;;;;;;46.17;32.08;;;;;;;;;;5054761;28;20040;-69
2021/08/12 07:24:59;;;;;;;38.80;28.85;;;;;;;;;;5055196;28;20124;-69
2021/08/12 07:27:26;;;;;;;41.28;30.30;;;;;;;;;;5053614;28;20037;-69
2021/08/12 07:29:52;;;;;;;47.45;31.25;;;;;;;;;;5050827;28;20073;-69
2021/08/12 07:32:18;;;;;;;38.15;27.55;;;;;;;;;;5049398;28;20051;-70
2021/08/12 07:34:45;;;;;;;40.22;26.80;;;;;;;;;;5049741;28;20061;-69
2021/08/12 07:37:11;;;;;;;36.05;26.27;;;;;;;;;;5050502;28;20483;-69
2021/08/12 07:39:37;;;;;;;34.92;27.85;;;;;;;;;;5049483;28;20064;-70
2021/08/12 07:42:04;;;;;;;36.88;27.25;;;;;;;;;;5052000;28;20045;-69
2021/08/12 07:44:30;;;;;;;36.35;27.63;;;;;;;;;;5047669;28;20157;-69
2021/08/12 07:46:56;;;;;;;39.20;27.42;;;;;;;;;;5034436;28;20087;-70
2021/08/12 07:49:22;;;;;;;34.10;25.40;;;;;;;;;;5036552;28;20386;-69
2021/08/12 07:51:49;;;;;;;34.53;26.27;;;;;;;;;;5041773;28;20357;-69
2021/08/12 07:54:15;;;;;;;34.42;23.02;;;;;;;;;;5044124;28;20075;-69
2021/08/12 07:56:42;;;;;;;35.22;22.92;;;;;;;;;;5049010;28;20475;-69
2021/08/12 07:59:08;;;;;;;32.47;22.75;;;;;;;;;;5036686;28;20107;-69
2021/08/12 08:01:34;;;;;;;28.63;20.52;;;;;;;;;;5040636;28;20041;-69
2021/08/12 08:04:02;;;;;;;25.25;19.73;;;;;;;;;;5042650;28;20563;-69
2021/08/12 08:06:28;;;;;;;28.33;18.63;;;;;;;;;;5052500;28;20045;-69
2021/08/12 08:08:54;;;;;;;29.30;20.40;;;;;;;;;;5040738;28;20156;-69
2021/08/12 08:11:21;;;;;;;26.77;19.45;;;;;;;;;;5043696;28;20056;-70
2021/08/12 08:13:47;;;;;;;28.10;21.17;;;;;;;;;;5043751;28;20038;-69
2021/08/12 08:16:14;;;;;;;27.38;20.27;;;;;;;;;;5041077;28;20045;-69
2021/08/12 08:18:40;;;;;;;30.30;21.77;;;;;;;;;;5038560;28;20458;-69
2021/08/12 08:21:07;;;;;;;32.35;22.42;;;;;;;;;;5040599;28;20477;-69
2021/08/12 08:23:33;;;;;;;26.63;20.65;;;;;;;;;;5039850;28;20048;-69
2021/08/12 08:25:59;;;;;;;27.80;20.83;;;;;;;;;;5041846;28;20489;-69
2021/08/12 08:28:26;;;;;;;29.02;20.98;;;;;;;;;;5048828;28;20060;-69
2021/08/12 08:30:52;;;;;;;28.13;20.50;;;;;;;;;;5044032;28;20158;-69
2021/08/12 08:33:18;;;;;;;27.23;20.95;;;;;;;;;;5046209;28;20147;-69
2021/08/12 08:35:44;;;;;;;29.70;21.67;;;;;;;;;;5046631;28;20057;-69
2021/08/12 08:38:11;;;;;;;26.15;20.95;;;;;;;;;;5044484;28;20598;-69
2021/08/12 08:40:37;;;;;;;26.40;21.73;;;;;;;;;;5046274;28;20053;-70
2021/08/12 08:43:03;;;;;;;27.83;21.67;;;;;;;;;;5041114;28;20045;-69
2021/08/12 08:45:30;;;;;;;29.38;21.92;;;;;;;;;;5058651;28;20048;-69
2021/08/12 08:47:57;;;;;;;28.67;21.67;;;;;;;;;;5045091;28;20051;-69
2021/08/12 08:50:25;;;;;;;26.30;21.98;;;;;;;;;;5040876;28;20048;-69
2021/08/12 08:52:52;;;;;;;24.85;19.10;;;;;;;;;;5044519;28;20037;-69
2021/08/12 08:55:21;;;;;;;27.27;20.65;;;;;;;;;;5043182;28;20053;-69
2021/08/12 08:57:49;;;;;;;31.02;21.30;;;;;;;;;;5044893;28;20041;-69
2021/08/12 09:00:16;;;;;;;29.92;20.88;;;;;;;;;;5052642;28;20050;-69
2021/08/12 09:02:44;;;;;;;26.90;19.38;;;;;;;;;;5044083;28;20721;-69
2021/08/12 09:05:10;;;;;;;26.00;19.45;;;;;;;;;;5048338;28;20046;-69
2021/08/12 09:07:37;;;;;;;29.45;20.80;;;;;;;;;;5045060;28;20118;-69
2021/08/12 09:10:04;;;;;;;24.15;17.00;;;;;;;;;;5050735;28;20048;-69
2021/08/12 09:12:31;;;;;;;23.90;15.60;;;;;;;;;;5045375;28;20037;-69
2021/08/12 09:15:02;;;;;;;23.25;17.75;;;;;;;;;;5047300;28;20262;-69
2021/08/12 09:17:30;;;;;;;22.38;16.30;;;;;;;;;;5046936;28;20121;-69
2021/08/12 09:19:59;;;;;;;28.33;17.95;;;;;;;;;;5047065;28;20119;-69
2021/08/12 09:22:27;;;;;;;24.02;16.08;;;;;;;;;;5048023;28;20072;-69
2021/08/12 09:24:53;;;;;;;20.13;16.70;;;;;;;;;;5048536;28;20452;-69
2021/08/12 09:27:20;;;;;;;24.40;18.05;;;;;;;;;;5050042;28;20052;-69
2021/08/12 09:29:46;;;;;;;21.48;15.10;;;;;;;;;;5034973;28;20041;-69
2021/08/12 09:32:13;;;;;;;22.40;16.95;;;;;;;;;;5040858;28;20060;-69
2021/08/12 09:34:40;;;;;;;15.95;12.07;;;;;;;;;;5036556;28;20049;-69
2021/08/12 09:37:07;;;;;;;15.98;11.63;;;;;;;;;;5034774;28;20039;-69
2021/08/12 09:39:34;;;;;;;18.08;13.57;;;;;;;;;;5037757;28;20033;-69
2021/08/12 09:42:01;;;;;;;16.38;13.43;;;;;;;;;;5049232;28;20103;-70
2021/08/12 09:44:36;;;;;;;18.48;13.55;;;;;;;;;;5046918;28;20047;-70
2021/08/12 09:47:04;;;;;;;19.67;13.30;;;;;;;;;;5047642;28;20037;-69
2021/08/12 09:49:39;;;;;;;17.52;13.63;;;;;;;;;;5041471;28;20056;-70
2021/08/12 09:52:16;;;;;;;21.35;11.40;;;;;;;;;;5040042;28;20164;-70
2021/08/12 09:54:43;;;;;;;12.13;7.20;;;;;;;;;;5041121;28;20053;-69
2021/08/12 09:57:16;;;;;;;12.00;8.38;;;;;;;;;;5041818;28;20037;-69
2021/08/12 09:59:50;;;;;;;13.98;9.65;;;;;;;;;;5043267;28;20042;-84
2021/08/12 10:02:17;;;;;;;11.75;9.38;;;;;;;;;;5042545;28;20048;-70
2021/08/12 10:04:44;;;;;;;14.20;8.35;;;;;;;;;;5041587;28;20076;-70
2021/08/12 10:07:28;;;;;;;11.90;7.95;;;;;;;;;;5041876;28;20060;-70
2021/08/12 10:09:55;;;;;;;11.93;6.60;;;;;;;;;;5041695;28;20600;-70
2021/08/12 10:12:36;;;;;;;12.35;8.50;;;;;;;;;;5043781;28;20501;-70
2021/08/12 10:15:02;;;;;;;13.65;8.57;;;;;;;;;;5041007;28;20063;-70
2021/08/12 10:17:29;;;;;;;10.70;7.82;;;;;;;;;;5037539;28;20041;-70
2021/08/12 10:19:55;;;;;;;14.85;8.00;;;;;;;;;;5067595;28;20049;-70
2021/08/12 10:22:22;;;;;;;14.18;8.48;;;;;;;;;;5038954;28;20171;-71
2021/08/12 10:24:49;;;;;;;10.15;6.90;;;;;;;;;;5041056;28;20068;-71
2021/08/12 10:27:15;;;;;;;8.45;5.55;;;;;;;;;;5042628;28;20608;-70
2021/08/12 10:29:44;;;;;;;8.90;5.90;;;;;;;;;;5041292;28;20110;-71
2021/08/12 10:32:11;;;;;;;17.95;6.25;;;;;;;;;;5044133;28;20097;-71
2021/08/12 10:34:38;;;;;;;7.90;5.18;;;;;;;;;;5039212;28;20060;-71
2021/08/12 10:37:04;;;;;;;10.68;5.15;;;;;;;;;;5034907;28;20370;-70
2021/08/12 10:39:30;;;;;;;9.75;6.57;;;;;;;;;;5038179;28;20052;-71
2021/08/12 10:41:57;;;;;;;11.35;5.50;;;;;;;;;;5037391;28;20041;-71
2021/08/12 10:44:23;;;;;;;10.63;5.57;;;;;;;;;;5037139;28;20111;-71
2021/08/12 10:46:50;;;;;;;9.45;4.95;;;;;;;;;;5039374;28;20056;-71
2021/08/12 10:49:25;;;;;;;13.23;5.70;;;;;;;;;;5042703;28;20443;-71
2021/08/12 10:52:01;;;;;;;14.65;5.70;;;;;;;;;;5043802;28;20037;-71
2021/08/12 10:54:28;;;;;;;9.52;5.30;;;;;;;;;;5035695;28;20045;-71
2021/08/12 10:57:13;;;;;;;9.20;5.55;;;;;;;;;;5037166;28;20037;-70
2021/08/12 10:59:40;;;;;;;10.52;5.15;;;;;;;;;;5035556;28;20048;-70
2021/08/12 11:02:41;;;;;;;10.43;6.25;;;;;;;;;;5040839;28;20041;-70
2021/08/12 11:05:08;;;;;;;9.80;6.70;;;;;;;;;;5040191;28;20057;-71
2021/08/12 11:07:38;;;;;;;11.95;6.35;;;;;;;;;;5039211;28;20103;-70
2021/08/12 11:10:07;;;;;;;7.47;4.50;;;;;;;;;;5048050;28;20078;-70
2021/08/12 11:12:52;;;;;;;9.60;5.70;;;;;;;;;;5043297;28;20076;-70
2021/08/12 11:15:39;;;;;;;6.63;5.13;;;;;;;;;;5043498;28;20399;-70
2021/08/12 11:18:06;;;;;;;8.43;5.47;;;;;;;;;;5038701;28;20096;-70
2021/08/12 11:20:34;;;;;;;9.70;5.95;;;;;;;;;;5029026;28;21388;-71
2021/08/12 11:23:19;;;;;;;9.40;6.07;;;;;;;;;;5022867;28;20578;-70
2021/08/12 11:25:56;;;;;;;8.63;6.00;;;;;;;;;;5027483;28;20049;-70
2021/08/12 11:28:41;;;;;;;9.65;5.40;;;;;;;;;;5027440;28;20073;-71
2021/08/12 11:31:07;;;;;;;10.57;6.93;;;;;;;;;;5024845;28;20083;-71
2021/08/12 11:33:43;;;;;;;11.32;7.07;;;;;;;;;;5021001;28;20088;-71
2021/08/12 11:36:11;;;;;;;10.85;6.78;;;;;;;;;;5028633;28;20123;-71
2021/08/12 11:38:37;;;;;;;8.80;5.75;;;;;;;;;;5034601;28;20036;-70
2021/08/12 11:41:04;;;;;;;9.63;6.10;;;;;;;;;;5040028;28;20056;-70
2021/08/12 11:43:30;;;;;;;10.93;6.45;;;;;;;;;;5042384;28;20132;-71
2021/08/12 11:45:57;;;;;;;15.15;7.43;;;;;;;;;;5040332;28;20045;-70
2021/08/12 11:48:24;;;;;;;10.18;6.93;;;;;;;;;;5040749;28;20480;-70
2021/08/12 11:50:51;;;;;;;10.10;7.05;;;;;;;;;;5038813;28;20070;-70
2021/08/12 11:53:36;;;;;;;12.75;6.47;;;;;;;;;;5034268;28;20041;-70
2021/08/12 11:56:22;;;;;;;10.38;6.78;;;;;;;;;;5029076;28;20045;-70
2021/08/12 11:58:49;;;;;;;12.23;6.60;;;;;;;;;;5061090;28;20081;-70
2021/08/12 12:01:17;;;;;;;9.93;6.75;;;;;;;;;;5039063;28;20063;-70
2021/08/12 12:03:43;;;;;;;11.60;6.85;;;;;;;;;;5035839;28;20124;-70
2021/08/12 12:06:10;;;;;;;9.57;6.05;;;;;;;;;;5035520;28;20584;-70
2021/08/12 12:08:36;;;;;;;10.60;7.00;;;;;;;;;;5047591;28;20106;-70
2021/08/12 12:11:10;;;;;;;9.00;6.28;;;;;;;;;;5046802;28;20122;-70
2021/08/12 12:13:36;;;;;;;13.25;6.57;;;;;;;;;;5041349;28;20354;-70
2021/08/12 12:16:07;;;;;;;12.02;7.20;;;;;;;;;;5038153;28;20046;-70
2021/08/12 12:18:35;;;;;;;9.63;6.43;;;;;;;;;;5065905;28;20071;-70
2021/08/12 12:21:02;;;;;;;9.27;5.18;;;;;;;;;;5039403;28;20511;-70
2021/08/12 12:23:29;;;;;;;11.63;5.45;;;;;;;;;;5040818;28;20065;-70
2021/08/12 12:25:56;;;;;;;7.78;4.03;;;;;;;;;;5035566;28;20681;-71
2021/08/12 12:28:22;;;;;;;8.75;5.32;;;;;;;;;;5065240;28;20073;-70
2021/08/12 12:30:49;;;;;;;15.93;6.97;;;;;;;;;;5034011;28;20128;-70
2021/08/12 12:33:16;;;;;;;12.02;6.32;;;;;;;;;;5039266;28;20056;-70
2021/08/12 12:35:44;;;;;;;9.82;5.57;;;;;;;;;;5041053;28;20126;-70
2021/08/12 12:38:14;;;;;;;10.30;5.10;;;;;;;;;;5040342;28;20041;-70
2021/08/12 12:40:41;;;;;;;9.35;5.47;;;;;;;;;;5040131;28;20048;-70
2021/08/12 12:43:08;;;;;;;9.02;5.78;;;;;;;;;;5036624;28;20066;-70
2021/08/12 12:45:44;;;;;;;8.27;5.78;;;;;;;;;;5036721;28;20080;-70
2021/08/12 12:48:10;;;;;;;9.75;5.53;;;;;;;;;;5038277;28;20065;-70
2021/08/12 12:50:43;;;;;;;9.20;5.28;;;;;;;;;;5037997;28;20072;-70
2021/08/12 12:53:10;;;;;;;9.88;4.60;;;;;;;;;;5040427;28;20056;-70
2021/08/12 12:55:37;;;;;;;9.30;5.55;;;;;;;;;;5063118;28;20069;-70
2021/08/12 12:58:15;;;;;;;10.02;4.55;;;;;;;;;;5036338;28;20080;-70
2021/08/12 13:00:43;;;;;;;8.38;4.55;;;;;;;;;;5039185;28;20132;-70
2021/08/12 13:03:10;;;;;;;6.72;4.55;;;;;;;;;;5039028;28;20041;-70
2021/08/12 13:05:47;;;;;;;11.18;5.22;;;;;;;;;;5035973;28;20064;-69
2021/08/12 13:08:13;;;;;;;8.63;5.57;;;;;;;;;;5039165;28;20040;-70
2021/08/12 13:10:40;;;;;;;8.80;4.97;;;;;;;;;;5040209;28;20040;-70
2021/08/12 13:13:06;;;;;;;8.18;4.68;;;;;;;;;;5072500;28;21778;-69
2021/08/12 13:15:33;;;;;;;8.50;4.75;;;;;;;;;;5038712;28;20408;-69
2021/08/12 13:18:00;;;;;;;7.40;4.35;;;;;;;;;;5039823;28;20107;-70
2021/08/12 13:20:27;;;;;;;10.00;5.03;;;;;;;;;;5039133;28;20094;-70
2021/08/12 13:22:55;;;;;;;8.02;4.85;;;;;;;;;;5045885;28;20098;-70
2021/08/12 13:25:23;;;;;;;7.38;4.20;;;;;;;;;;5033938;28;20067;-70
2021/08/12 13:27:51;;;;;;;8.95;4.70;;;;;;;;;;5041864;28;20037;-70
2021/08/12 13:30:18;;;;;;;8.68;5.18;;;;;;;;;;5042701;28;20405;-70
2021/08/12 13:32:45;;;;;;;11.10;4.60;;;;;;;;;;5036234;28;20073;-71
2021/08/12 13:35:12;;;;;;;8.55;4.43;;;;;;;;;;5037771;28;20038;-70
2021/08/12 13:37:38;;;;;;;9.63;4.57;;;;;;;;;;5039933;28;20047;-71
2021/08/12 13:40:05;;;;;;;8.98;3.60;;;;;;;;;;5044831;28;20052;-71
2021/08/12 13:42:31;;;;;;;8.25;3.85;;;;;;;;;;5045977;28;20120;-70
2021/08/12 13:44:57;;;;;;;9.85;4.50;;;;;;;;;;5042850;28;20039;-70
2021/08/12 13:47:23;;;;;;;8.70;3.50;;;;;;;;;;5040076;28;20071;-70
2021/08/12 13:49:50;;;;;;;8.07;4.22;;;;;;;;;;5039938;28;20119;-70
2021/08/12 13:52:17;;;;;;;5.20;3.25;;;;;;;;;;5039961;28;20057;-70
2021/08/12 13:54:45;;;;;;;5.85;3.53;;;;;;;;;;5029081;28;20092;-70
2021/08/12 13:57:12;;;;;;;7.95;3.75;;;;;;;;;;5055671;28;20067;-71
2021/08/12 13:59:38;;;;;;;5.20;3.00;;;;;;;;;;5031664;28;20413;-71
2021/08/12 14:02:05;;;;;;;7.45;3.30;;;;;;;;;;5033290;28;20049;-70
2021/08/12 14:04:31;;;;;;;6.97;2.67;;;;;;;;;;5034334;28;20060;-70
2021/08/12 14:06:57;;;;;;;7.50;2.83;;;;;;;;;;5035650;28;21360;-70
2021/08/12 14:09:23;;;;;;;7.30;2.90;;;;;;;;;;5034232;28;20562;-70
2021/08/12 14:11:50;;;;;;;8.15;3.05;;;;;;;;;;5039950;28;20045;-70
2021/08/12 14:14:17;;;;;;;9.13;3.45;;;;;;;;;;5042974;28;20049;-70
2021/08/12 14:16:43;;;;;;;6.30;2.72;;;;;;;;;;5042356;28;20057;-70
2021/08/12 14:19:10;;;;;;;6.93;2.25;;;;;;;;;;5042241;28;20037;-71
2021/08/12 14:21:36;;;;;;;4.90;1.88;;;;;;;;;;5043778;28;20041;-70
2021/08/12 14:24:03;;;;;;;4.85;1.95;;;;;;;;;;5037522;28;20124;-70